Time;durP1;ratioP1;P1;durP2;ratioP2;P2;SDS_P1;SDS_P2;PMS_P1;PMS_P2;Temp;Humidity;BMP_temperature;BMP_pressure;BME280_temperature;BME280_humidity;BME280_pressure;Samples;Min_cycle;Max_cycle;Signal;HPM_P1;HPM_P2
2023/01/21 00:01:51;;;;;;;16.47;11.20;;;;;;;-1.92;nan;97507.00;6242876;28;20314;-61
2023/01/21 00:04:53;;;;;;;16.53;9.93;;;;;;;-1.94;nan;97508.78;6235375;28;20486;-61
2023/01/21 00:07:57;;;;;;;25.90;10.83;;;;;;;-1.95;nan;97513.09;6240403;28;20300;-61
2023/01/21 00:11:05;;;;;;;17.07;9.93;;;;;;;-1.93;nan;97515.63;6241839;28;20322;-61
2023/01/21 00:14:07;;;;;;;15.63;9.47;;;;;;;-1.94;nan;97519.97;6244600;28;20330;-61
2023/01/21 00:17:12;;;;;;;12.50;7.80;;;;;;;-1.95;nan;97509.66;6242542;28;20220;-61
2023/01/21 00:20:15;;;;;;;11.93;8.00;;;;;;;-1.95;nan;97520.00;6243125;28;20231;-61
2023/01/21 00:23:18;;;;;;;12.63;9.20;;;;;;;-1.96;nan;97520.91;6241154;28;20561;-61
2023/01/21 00:26:20;;;;;;;12.17;8.40;;;;;;;-1.93;nan;97515.63;6238417;28;20222;-61
2023/01/21 00:29:22;;;;;;;16.80;9.60;;;;;;;-1.96;nan;97514.00;6241248;28;20228;-61
2023/01/21 00:32:26;;;;;;;13.53;9.23;;;;;;;-1.93;nan;97515.63;6242658;28;20231;-61
2023/01/21 00:35:30;;;;;;;14.77;9.27;;;;;;;-1.94;nan;97512.22;6225874;28;20224;-61
2023/01/21 00:38:33;;;;;;;14.17;9.13;;;;;;;-1.93;nan;97516.47;6237456;28;20392;-61
2023/01/21 00:41:36;;;;;;;12.93;9.17;;;;;;;-1.93;nan;97513.06;6224839;28;20233;-61
2023/01/21 00:44:38;;;;;;;12.43;8.57;;;;;;;-1.91;nan;97500.94;6241698;28;20236;-61
2023/01/21 00:47:41;;;;;;;16.03;9.33;;;;;;;-1.92;nan;97496.66;6224166;28;20373;-61
2023/01/21 00:50:43;;;;;;;12.83;9.00;;;;;;;-1.91;nan;97511.28;6240679;28;20231;-61
2023/01/21 00:53:45;;;;;;;12.77;9.23;;;;;;;-1.92;nan;97500.06;6241675;28;20231;-61
2023/01/21 00:56:48;;;;;;;12.37;8.57;;;;;;;-1.93;nan;97506.16;6234909;28;20704;-61
2023/01/21 00:59:50;;;;;;;13.70;9.27;;;;;;;-1.93;nan;97506.16;6234887;28;20237;-61
2023/01/21 01:02:53;;;;;;;12.33;8.90;;;;;;;-1.92;nan;97507.00;6237894;28;20232;-61
2023/01/21 01:06:02;;;;;;;11.27;9.07;;;;;;;-1.91;nan;97508.69;6242118;28;20247;-61
2023/01/21 01:09:05;;;;;;;13.03;8.07;;;;;;;-1.91;nan;97506.09;6219622;28;20235;-61
2023/01/21 01:12:07;;;;;;;10.10;7.47;;;;;;;-1.92;nan;97507.00;6240615;28;20211;-61
2023/01/21 01:15:10;;;;;;;12.10;8.33;;;;;;;-1.93;nan;97495.81;6242454;28;20770;-61
2023/01/21 01:18:12;;;;;;;12.70;8.43;;;;;;;-1.95;nan;97497.59;6240440;28;20261;-60
2023/01/21 01:21:17;;;;;;;13.47;9.00;;;;;;;-1.96;nan;97497.63;6241329;28;20985;-62
2023/01/21 01:24:20;;;;;;;11.37;8.50;;;;;;;-1.97;nan;97503.69;6238320;28;20227;-61
2023/01/21 01:27:22;;;;;;;11.90;7.80;;;;;;;-1.98;nan;97502.00;6242856;28;20575;-61
2023/01/21 01:30:25;;;;;;;12.53;7.97;;;;;;;-2.00;nan;97507.25;6240324;28;20230;-61
2023/01/21 01:33:27;;;;;;;13.00;8.50;;;;;;;-2.00;nan;97499.50;6242852;28;20218;-61
2023/01/21 01:36:30;;;;;;;12.03;8.10;;;;;;;-1.99;nan;97501.16;6235070;28;20226;-61
2023/01/21 01:39:36;;;;;;;10.53;7.23;;;;;;;-1.98;nan;97514.94;6237477;28;20626;-61
2023/01/21 01:42:38;;;;;;;13.00;7.73;;;;;;;-1.99;nan;97514.09;6240029;28;20277;-60
2023/01/21 01:45:41;;;;;;;12.63;8.10;;;;;;;-1.97;nan;97525.22;6233705;28;20220;-60
2023/01/21 01:48:46;;;;;;;12.97;8.30;;;;;;;-1.96;nan;97516.56;6240174;28;20229;-61
2023/01/21 01:51:57;;;;;;;11.13;7.33;;;;;;;-1.95;nan;97520.00;6239884;28;20729;-60
2023/01/21 01:55:01;;;;;;;13.27;8.27;;;;;;;-1.95;nan;97513.09;6236818;28;20227;-61
2023/01/21 01:58:09;;;;;;;11.77;7.77;;;;;;;-1.92;nan;97510.41;6239344;28;20232;-61
2023/01/21 02:01:12;;;;;;;12.17;8.60;;;;;;;-1.90;nan;97502.63;6240100;28;20599;-61
2023/01/21 02:04:19;;;;;;;11.07;7.10;;;;;;;-1.91;nan;97494.00;6240788;28;20242;-60
2023/01/21 02:07:23;;;;;;;12.50;8.20;;;;;;;-1.90;nan;97490.50;6239052;28;20236;-61
2023/01/21 02:10:25;;;;;;;11.83;7.30;;;;;;;-1.89;nan;97499.09;6236872;28;20244;-61
2023/01/21 02:13:32;;;;;;;10.37;6.87;;;;;;;-1.87;nan;97493.00;6221716;28;20649;-61
2023/01/21 02:16:40;;;;;;;13.53;7.47;;;;;;;-1.87;nan;97489.56;6223141;28;20227;-60
2023/01/21 02:20:11;;;;;;;11.60;7.00;;;;;;;-1.86;nan;97478.31;6214872;28;20232;-61
2023/01/21 02:23:56;;;;;;;14.40;8.23;;;;;;;-1.84;nan;97483.44;6238812;28;20215;-61
2023/01/21 02:27:45;;;;;;;11.80;7.30;;;;;;;-1.88;nan;97483.53;6235652;28;20231;-63
2023/01/21 02:31:32;;;;;;;11.13;7.27;;;;;;;-1.88;nan;97485.28;6165910;28;20259;-60
2023/01/21 02:34:39;;;;;;;10.23;6.57;;;;;;;-1.87;nan;97474.88;6164878;28;20299;-61
2023/01/21 02:38:08;;;;;;;9.93;6.80;;;;;;;-1.85;nan;97477.44;6163106;28;20255;-60
2023/01/21 02:41:20;;;;;;;10.43;7.17;;;;;;;-1.87;nan;97472.31;6160883;28;20244;-60
2023/01/21 02:44:49;;;;;;;11.97;6.77;;;;;;;-1.88;nan;97472.34;6163274;28;20708;-60
2023/01/21 02:48:27;;;;;;;9.80;6.57;;;;;;;-1.90;nan;97475.00;6162835;28;20598;-60
2023/01/21 02:51:32;;;;;;;9.10;5.83;;;;;;;-1.90;nan;97459.47;6161713;28;20313;-61
2023/01/21 02:54:40;;;;;;;10.47;6.40;;;;;;;-1.89;nan;97473.25;6164198;28;20740;-60
2023/01/21 02:57:50;;;;;;;11.13;6.60;;;;;;;-1.91;nan;97470.75;6163193;28;20230;-60
2023/01/21 03:01:13;;;;;;;9.33;5.97;;;;;;;-1.91;nan;97467.31;6163469;28;20248;-60
2023/01/21 03:04:42;;;;;;;10.60;6.07;;;;;;;-1.91;nan;97469.91;6161599;28;20249;-60
2023/01/21 03:08:01;;;;;;;9.10;6.30;;;;;;;-1.90;nan;97469.81;6193007;28;20597;-61
2023/01/21 03:11:16;;;;;;;9.23;5.83;;;;;;;-1.89;nan;97460.31;6214080;28;20617;-60
2023/01/21 03:17:57;;;;;;;8.70;5.63;;;;;;;-1.91;nan;97465.56;6222189;28;20235;-60
2023/01/21 03:21:10;;;;;;;9.87;6.00;;;;;;;-1.88;nan;97462.00;6211840;28;20435;-61
2023/01/21 03:24:13;;;;;;;10.93;7.30;;;;;;;-1.87;nan;97456.78;6215376;28;20235;-60
2023/01/21 03:27:20;;;;;;;11.33;7.13;;;;;;;-1.86;nan;97452.47;6220293;28;20694;-61
2023/01/21 03:30:26;;;;;;;10.20;6.40;;;;;;;-1.84;nan;97462.75;6220725;28;20632;-61
2023/01/21 03:33:34;;;;;;;9.27;6.00;;;;;;;-1.83;nan;97459.28;6218881;28;20242;-61
2023/01/21 03:37:01;;;;;;;10.53;6.80;;;;;;;-1.83;nan;97454.94;6215351;28;20617;-61
2023/01/21 03:40:29;;;;;;;10.63;6.37;;;;;;;-1.83;nan;97460.13;6218959;28;20232;-61
2023/01/21 03:43:31;;;;;;;9.20;6.40;;;;;;;-1.81;nan;97462.66;6211176;28;20232;-61
2023/01/21 03:46:34;;;;;;;10.27;6.73;;;;;;;-1.80;nan;97464.34;6213076;28;20587;-61
2023/01/21 03:50:28;;;;;;;9.37;6.53;;;;;;;-1.80;nan;97465.19;6219369;28;20232;-61
2023/01/21 03:53:30;;;;;;;11.17;7.23;;;;;;;-1.79;nan;97466.00;6191488;28;20237;-60
2023/01/21 03:56:33;;;;;;;10.17;6.43;;;;;;;-1.77;nan;97467.66;6194148;28;20669;-61
2023/01/21 03:59:35;;;;;;;10.33;6.27;;;;;;;-1.76;nan;97468.50;6191122;28;20249;-61
2023/01/21 04:02:39;;;;;;;7.37;5.20;;;;;;;-1.75;nan;97472.78;6172839;28;20232;-61
2023/01/21 04:05:43;;;;;;;9.57;5.97;;;;;;;-1.75;nan;97473.63;6191561;28;20234;-61
2023/01/21 04:08:46;;;;;;;9.07;6.73;;;;;;;-1.77;nan;97467.66;6191487;28;20225;-61
2023/01/21 04:11:48;;;;;;;10.23;6.30;;;;;;;-1.77;nan;97459.91;6190592;28;20244;-61
2023/01/21 04:14:50;;;;;;;10.07;7.17;;;;;;;-1.74;nan;97456.38;6191839;28;20229;-61
2023/01/21 04:17:52;;;;;;;10.40;6.80;;;;;;;-1.73;nan;97458.06;6191805;28;20237;-61
2023/01/21 04:20:55;;;;;;;10.20;7.17;;;;;;;-1.73;nan;97443.38;6191390;28;20243;-62
2023/01/21 04:23:57;;;;;;;11.10;6.80;;;;;;;-1.75;nan;97429.66;6188311;28;20655;-61
2023/01/21 04:27:01;;;;;;;10.90;7.13;;;;;;;-1.75;nan;97437.41;6190276;28;20240;-63
2023/01/21 04:30:03;;;;;;;10.87;7.20;;;;;;;-1.73;nan;97440.81;6205209;28;20224;-61
2023/01/21 04:33:05;;;;;;;9.97;6.43;;;;;;;-1.72;nan;97441.66;6216837;28;20208;-62
2023/01/21 04:36:08;;;;;;;8.97;6.27;;;;;;;-1.72;nan;97444.22;6220398;28;20228;-61
2023/01/21 04:39:10;;;;;;;9.77;6.73;;;;;;;-1.73;nan;97437.38;6218723;28;20229;-61
2023/01/21 04:42:12;;;;;;;11.30;6.83;;;;;;;-1.72;nan;97447.66;6217684;28;20753;-61
2023/01/21 04:45:15;;;;;;;9.37;7.07;;;;;;;-1.70;nan;97448.47;6215256;28;20231;-61
2023/01/21 04:48:17;;;;;;;10.23;6.60;;;;;;;-1.72;nan;97450.25;6217747;28;20224;-62
2023/01/21 04:51:21;;;;;;;10.17;6.73;;;;;;;-1.72;nan;97452.84;6214463;28;20237;-62
2023/01/21 04:54:23;;;;;;;9.70;6.47;;;;;;;-1.69;nan;97470.81;6217257;28;20227;-61
2023/01/21 04:57:25;;;;;;;9.10;5.97;;;;;;;-1.69;nan;97477.72;6217609;28;20608;-62
2023/01/21 05:00:27;;;;;;;8.67;5.63;;;;;;;-1.68;nan;97469.06;6210300;28;20254;-62
2023/01/21 05:03:29;;;;;;;10.83;5.87;;;;;;;-1.67;nan;97465.59;6219139;28;20320;-61
2023/01/21 05:06:31;;;;;;;9.80;6.77;;;;;;;-1.66;nan;97481.06;6223554;28;20231;-61
2023/01/21 05:09:35;;;;;;;9.80;6.37;;;;;;;-1.70;nan;97484.69;6240273;28;20254;-61
2023/01/21 05:12:42;;;;;;;9.83;6.40;;;;;;;-1.69;nan;97488.06;6238506;28;20224;-61
2023/01/21 05:15:44;;;;;;;10.80;6.13;;;;;;;-1.73;nan;97489.94;6242388;28;20230;-61
2023/01/21 05:18:47;;;;;;;10.70;5.77;;;;;;;-1.75;nan;97494.31;6236750;28;20223;-61
2023/01/21 05:21:50;;;;;;;10.13;5.90;;;;;;;-1.74;nan;97502.94;6241543;28;20219;-61
2023/01/21 05:24:52;;;;;;;10.13;6.13;;;;;;;-1.72;nan;97503.72;6244065;28;20223;-62
2023/01/21 05:27:55;;;;;;;12.27;6.10;;;;;;;-1.75;nan;97507.25;6221383;28;20233;-61
2023/01/21 05:31:01;;;;;;;9.77;5.90;;;;;;;-1.72;nan;97512.34;6241558;28;20679;-61
2023/01/21 05:34:04;;;;;;;8.53;5.23;;;;;;;-1.74;nan;97501.19;6240260;28;20297;-61
2023/01/21 05:37:06;;;;;;;9.67;5.50;;;;;;;-1.75;nan;97509.00;6236143;28;20223;-61
2023/01/21 05:40:09;;;;;;;7.60;5.10;;;;;;;-1.78;nan;97503.91;6239128;28;20284;-61
2023/01/21 05:43:12;;;;;;;9.63;5.97;;;;;;;-1.76;nan;97515.06;6237777;28;20235;-61
2023/01/21 05:46:14;;;;;;;7.53;4.80;;;;;;;-1.76;nan;97518.50;6234512;28;20262;-61
2023/01/21 05:49:18;;;;;;;7.97;4.87;;;;;;;-1.75;nan;97527.94;6225049;28;20719;-61
2023/01/21 05:52:20;;;;;;;7.23;4.53;;;;;;;-1.72;nan;97540.78;6241306;28;20318;-61
2023/01/21 05:55:23;;;;;;;7.67;5.33;;;;;;;-1.74;nan;97537.41;6236750;28;20282;-61
2023/01/21 05:58:25;;;;;;;10.17;5.70;;;;;;;-1.74;nan;97540.00;6235471;28;20228;-61
2023/01/21 06:01:27;;;;;;;8.37;4.87;;;;;;;-1.76;nan;97546.94;6241497;28;20233;-61
2023/01/21 06:04:30;;;;;;;6.60;4.70;;;;;;;-1.76;nan;97552.13;6223481;28;20242;-61
2023/01/21 06:07:38;;;;;;;8.37;5.00;;;;;;;-1.77;nan;97550.44;6222472;28;20242;-62
2023/01/21 06:10:40;;;;;;;7.87;4.97;;;;;;;-1.77;nan;97552.16;6241063;28;20249;-61
2023/01/21 06:13:42;;;;;;;7.33;5.07;;;;;;;-1.79;nan;97567.72;6239439;28;20287;-61
2023/01/21 06:16:47;;;;;;;7.57;4.80;;;;;;;-1.77;nan;97565.09;6239647;28;20220;-61
2023/01/21 06:19:52;;;;;;;7.80;4.90;;;;;;;-1.77;nan;97567.69;6241027;28;20235;-61
2023/01/21 06:22:55;;;;;;;6.63;4.13;;;;;;;-1.78;nan;97561.66;6239493;28;20231;-62
2023/01/21 06:26:01;;;;;;;6.60;4.37;;;;;;;-1.80;nan;97562.63;6221812;28;20631;-62
2023/01/21 06:29:06;;;;;;;7.73;4.90;;;;;;;-1.79;nan;97572.06;6243007;28;20599;-61
2023/01/21 06:32:08;;;;;;;6.87;4.63;;;;;;;-1.79;nan;97575.50;6237942;28;20449;-62
2023/01/21 06:35:10;;;;;;;6.63;4.53;;;;;;;-1.78;nan;97576.34;6237256;28;20599;-62
2023/01/21 06:38:13;;;;;;;6.53;4.47;;;;;;;-1.80;nan;97588.50;6239906;28;20238;-62
2023/01/21 06:41:15;;;;;;;6.93;4.47;;;;;;;-1.82;nan;97582.53;6237586;28;20242;-62
2023/01/21 06:44:18;;;;;;;7.80;4.90;;;;;;;-1.83;nan;97597.19;6242452;28;20729;-62
2023/01/21 06:47:21;;;;;;;6.70;4.40;;;;;;;-1.82;nan;97582.53;6233367;28;20227;-62
2023/01/21 06:50:26;;;;;;;7.23;4.50;;;;;;;-1.81;nan;97579.88;6234873;28;20262;-61
2023/01/21 06:53:29;;;;;;;6.03;3.97;;;;;;;-1.82;nan;97579.94;6241076;28;20228;-62
2023/01/21 06:56:31;;;;;;;7.13;4.63;;;;;;;-1.83;nan;97575.66;6233701;28;20224;-62
2023/01/21 06:59:33;;;;;;;7.07;4.10;;;;;;;-1.80;nan;97593.66;6237032;28;20228;-62
2023/01/21 07:02:36;;;;;;;7.30;5.10;;;;;;;-1.80;nan;97575.56;6234952;28;20235;-62
2023/01/21 07:05:38;;;;;;;7.33;4.73;;;;;;;-1.80;nan;97586.75;6239569;28;20242;-62
2023/01/21 07:08:40;;;;;;;5.50;3.67;;;;;;;-1.81;nan;97579.03;6239472;28;20230;-62
2023/01/21 07:11:43;;;;;;;6.27;4.57;;;;;;;-1.78;nan;97582.34;6238372;28;20258;-62
2023/01/21 07:14:45;;;;;;;6.57;4.50;;;;;;;-1.74;nan;97581.38;6235575;28;20234;-62
2023/01/21 07:17:47;;;;;;;8.50;4.70;;;;;;;-1.64;nan;97584.50;6235684;28;20575;-62
2023/01/21 07:20:52;;;;;;;7.17;4.43;;;;;;;-1.60;nan;97583.50;6240633;28;20601;-62
2023/01/21 07:23:55;;;;;;;7.77;5.07;;;;;;;-1.56;nan;97590.25;6235395;28;20227;-62
2023/01/21 07:26:57;;;;;;;6.57;4.53;;;;;;;-1.50;nan;97592.66;6232603;28;20253;-62
2023/01/21 07:30:00;;;;;;;5.63;4.30;;;;;;;-1.45;nan;97600.25;6239605;28;20638;-62
2023/01/21 07:33:07;;;;;;;7.73;4.70;;;;;;;-1.45;nan;97605.41;6239943;28;20799;-62
2023/01/21 07:36:10;;;;;;;6.70;4.70;;;;;;;-1.42;nan;97601.00;6234561;28;20212;-62
2023/01/21 07:39:12;;;;;;;7.43;4.27;;;;;;;-1.41;nan;97610.47;6240518;28;20211;-62
2023/01/21 07:42:14;;;;;;;7.73;4.80;;;;;;;-1.41;nan;97620.81;6228229;28;20292;-62
2023/01/21 07:45:17;;;;;;;7.00;3.83;;;;;;;-1.40;nan;97622.50;6240213;28;20222;-62
2023/01/21 07:48:20;;;;;;;6.83;4.10;;;;;;;-1.35;nan;97627.50;6237466;28;20208;-62
2023/01/21 07:51:22;;;;;;;5.63;3.97;;;;;;;-1.35;nan;97627.50;6237291;28;20235;-62
2023/01/21 07:54:25;;;;;;;6.97;4.23;;;;;;;-1.41;nan;97625.13;6233131;28;20227;-62
2023/01/21 07:57:27;;;;;;;6.23;4.03;;;;;;;-1.43;nan;97621.75;6220028;28;20222;-62
2023/01/21 08:00:29;;;;;;;6.57;4.27;;;;;;;-1.46;nan;97627.88;6243280;28;20230;-62
2023/01/21 08:03:36;;;;;;;5.97;4.10;;;;;;;-1.41;nan;97628.56;6243159;28;20674;-62
2023/01/21 08:06:40;;;;;;;5.90;3.70;;;;;;;-1.43;nan;97621.75;6224688;28;20238;-62
2023/01/21 08:09:45;;;;;;;6.07;4.40;;;;;;;-1.39;nan;97628.50;6244887;28;20219;-61
2023/01/21 08:12:48;;;;;;;5.27;3.63;;;;;;;-1.35;nan;97643.03;6245152;28;20227;-62
2023/01/21 08:15:51;;;;;;;7.17;3.90;;;;;;;-1.33;nan;97638.66;6239187;28;20258;-61
2023/01/21 08:18:54;;;;;;;5.73;3.73;;;;;;;-1.42;nan;97641.56;6236301;28;20255;-62
2023/01/21 08:21:56;;;;;;;4.73;3.43;;;;;;;-1.50;nan;97644.41;6238078;28;20235;-61
2023/01/21 08:24:58;;;;;;;7.13;4.27;;;;;;;-1.55;nan;97639.38;6224883;28;20235;-62
2023/01/21 08:28:03;;;;;;;5.50;3.43;;;;;;;-1.51;nan;97645.31;6240526;28;20235;-62
2023/01/21 08:31:11;;;;;;;5.63;3.77;;;;;;;-1.56;nan;97650.63;6241884;28;20243;-62
2023/01/21 08:34:14;;;;;;;4.40;3.37;;;;;;;-1.59;nan;97658.47;6239775;28;20745;-62
2023/01/21 08:37:16;;;;;;;5.93;3.90;;;;;;;-1.66;nan;97659.56;6242849;28;20262;-62
2023/01/21 08:40:18;;;;;;;6.87;4.20;;;;;;;-1.71;nan;97666.66;6243080;28;20235;-62
2023/01/21 08:43:21;;;;;;;6.17;4.10;;;;;;;-1.81;nan;97661.81;6243923;28;20331;-62
2023/01/21 08:46:23;;;;;;;6.07;4.03;;;;;;;-1.76;nan;97667.66;6233448;28;20234;-62
2023/01/21 08:49:26;;;;;;;5.57;4.07;;;;;;;-1.77;nan;97674.56;6223690;28;20232;-62
2023/01/21 08:52:28;;;;;;;8.00;4.40;;;;;;;-1.77;nan;97671.16;6242710;28;20231;-62
2023/01/21 08:55:30;;;;;;;6.57;4.53;;;;;;;-1.75;nan;97674.53;6236165;28;20322;-62
2023/01/21 08:58:33;;;;;;;7.23;4.00;;;;;;;-1.75;nan;97666.78;6242419;28;20242;-61
2023/01/21 09:01:39;;;;;;;6.73;4.37;;;;;;;-1.74;nan;97673.66;6241836;28;20240;-62
2023/01/21 09:04:42;;;;;;;6.97;4.60;;;;;;;-1.71;nan;97682.16;6243195;28;20239;-62
2023/01/21 09:07:44;;;;;;;7.00;4.30;;;;;;;-1.65;nan;97687.13;6239298;28;20602;-62
2023/01/21 09:11:02;;;;;;;5.77;3.90;;;;;;;-1.63;nan;97702.59;6242507;28;20281;-62
2023/01/21 09:14:07;;;;;;;7.00;4.40;;;;;;;-1.65;nan;97705.25;6238878;28;20662;-62
2023/01/21 09:17:09;;;;;;;6.33;4.13;;;;;;;-1.67;nan;97716.53;6242322;28;20842;-62
2023/01/21 09:20:12;;;;;;;5.13;3.40;;;;;;;-1.68;nan;97720.84;6240768;28;20691;-62
2023/01/21 09:23:23;;;;;;;5.03;4.00;;;;;;;-1.68;nan;97725.19;6240786;28;20238;-62
2023/01/21 09:26:26;;;;;;;5.03;4.00;;;;;;;-1.70;nan;97714.06;6240018;28;20224;-62
2023/01/21 09:29:28;;;;;;;6.03;3.83;;;;;;;-1.68;nan;97705.31;6239160;28;20257;-62
2023/01/21 09:32:30;;;;;;;6.73;4.13;;;;;;;-1.70;nan;97694.22;6244238;28;20222;-62
2023/01/21 09:35:35;;;;;;;6.47;3.70;;;;;;;-1.59;nan;97689.50;6243121;28;20230;-62
2023/01/21 09:38:40;;;;;;;6.30;4.17;;;;;;;-1.47;nan;97688.28;6237070;28;20232;-62
2023/01/21 09:41:48;;;;;;;5.90;3.93;;;;;;;-1.29;nan;97682.50;6238827;28;20270;-62
2023/01/21 09:44:53;;;;;;;5.63;3.83;;;;;;;-1.25;nan;97685.84;6239320;28;20234;-62
2023/01/21 09:47:58;;;;;;;4.90;3.70;;;;;;;-1.17;nan;97681.25;6237798;28;20220;-62
2023/01/21 09:51:08;;;;;;;5.73;3.83;;;;;;;-1.30;nan;97675.66;6230912;28;20337;-62
2023/01/21 09:54:20;;;;;;;4.17;3.50;;;;;;;-1.42;nan;97675.19;6201098;28;20349;-62
2023/01/21 09:57:30;;;;;;;5.77;3.60;;;;;;;-1.36;nan;97678.44;6236301;28;20219;-62
2023/01/21 10:00:40;;;;;;;5.63;3.67;;;;;;;-1.34;nan;97676.63;6242639;28;20231;-62
2023/01/21 10:03:46;;;;;;;6.77;3.80;;;;;;;-1.29;nan;97677.31;6240928;28;20212;-62
2023/01/21 10:07:02;;;;;;;5.53;3.33;;;;;;;-1.18;nan;97677.81;6241611;28;20833;-62
2023/01/21 10:10:30;;;;;;;5.07;3.10;;;;;;;-1.08;nan;97674.91;6223177;28;20227;-62
2023/01/21 10:13:48;;;;;;;5.13;3.03;;;;;;;-0.87;nan;97668.97;6224070;28;20239;-62
2023/01/21 10:17:07;;;;;;;3.83;3.20;;;;;;;-0.79;nan;97670.41;6215948;28;20618;-62
2023/01/21 10:20:22;;;;;;;4.83;2.70;;;;;;;-0.77;nan;97683.31;6209222;28;20244;-62
2023/01/21 10:23:41;;;;;;;4.63;2.90;;;;;;;-0.88;nan;97690.59;6215219;28;20240;-62
2023/01/21 10:26:47;;;;;;;4.23;2.93;;;;;;;-1.01;nan;97685.03;6208711;28;20251;-62
2023/01/21 10:29:56;;;;;;;4.87;3.07;;;;;;;-1.05;nan;97688.59;6209023;28;20601;-62
2023/01/21 10:32:58;;;;;;;3.77;2.60;;;;;;;-1.03;nan;97680.78;6208674;28;20310;-62
2023/01/21 10:36:28;;;;;;;3.23;2.50;;;;;;;-0.97;nan;97672.78;6208648;28;20236;-62
2023/01/21 10:39:51;;;;;;;3.33;2.53;;;;;;;-0.96;nan;97672.75;6209504;28;20228;-61
2023/01/21 10:43:09;;;;;;;3.70;2.73;;;;;;;-0.81;nan;97669.63;6209193;28;20477;-62
2023/01/21 10:46:26;;;;;;;4.73;2.90;;;;;;;-0.75;nan;97660.78;6207983;28;20238;-62
2023/01/21 10:50:00;;;;;;;3.77;2.70;;;;;;;-0.81;nan;97664.44;6209046;28;20599;-62
2023/01/21 10:53:16;;;;;;;3.80;2.70;;;;;;;-0.77;nan;97660.00;6208692;28;20350;-64
2023/01/21 10:56:58;;;;;;;3.90;2.40;;;;;;;-0.89;nan;97665.59;6209369;28;20240;-61
2023/01/21 11:00:17;;;;;;;4.40;2.47;;;;;;;-1.03;nan;97663.50;6208981;28;20244;-64
2023/01/21 11:03:42;;;;;;;3.60;2.63;;;;;;;-1.17;nan;97658.78;6208629;28;20228;-62
2023/01/21 11:06:49;;;;;;;4.87;2.80;;;;;;;-1.23;nan;97652.97;6208399;28;20239;-63
2023/01/21 11:09:52;;;;;;;4.03;2.80;;;;;;;-1.26;nan;97648.75;6209433;28;20600;-62
2023/01/21 11:12:55;;;;;;;3.43;2.87;;;;;;;-1.28;nan;97641.91;6209111;28;20262;-62
2023/01/21 11:16:03;;;;;;;4.30;2.93;;;;;;;-1.38;nan;97640.53;6208341;28;20362;-62
2023/01/21 11:19:06;;;;;;;3.90;2.60;;;;;;;-1.45;nan;97649.41;6208771;28;20235;-62
2023/01/21 11:22:15;;;;;;;3.73;2.90;;;;;;;-1.45;nan;97645.09;6212445;28;20731;-62
2023/01/21 11:25:34;;;;;;;4.40;3.03;;;;;;;-1.39;nan;97647.47;6209519;28;20248;-62
2023/01/21 11:28:40;;;;;;;4.70;3.03;;;;;;;-1.38;nan;97638.78;6208457;28;20261;-62
2023/01/21 11:32:01;;;;;;;3.87;2.80;;;;;;;-1.39;nan;97637.09;6208711;28;20236;-62
2023/01/21 11:35:09;;;;;;;4.07;2.77;;;;;;;-1.38;nan;97635.38;6213351;28;20241;-62
2023/01/21 11:38:32;;;;;;;4.50;3.47;;;;;;;-1.37;nan;97637.06;6213891;28;20248;-62
2023/01/21 11:41:35;;;;;;;4.47;3.00;;;;;;;-1.41;nan;97640.66;6213116;28;20256;-62
2023/01/21 11:44:51;;;;;;;5.40;3.73;;;;;;;-1.35;nan;97636.13;6194395;28;20779;-62
2023/01/21 11:47:54;;;;;;;4.17;2.80;;;;;;;-1.32;nan;97641.19;6211833;28;20243;-62
2023/01/21 11:51:06;;;;;;;3.83;2.77;;;;;;;-1.30;nan;97638.56;6214005;28;20236;-61
2023/01/21 11:54:20;;;;;;;5.43;3.50;;;;;;;-1.23;nan;97640.03;6210563;28;20252;-62
2023/01/21 11:57:29;;;;;;;5.10;3.17;;;;;;;-1.25;nan;97634.91;6212294;28;20248;-62
2023/01/21 12:00:35;;;;;;;3.83;2.93;;;;;;;-1.30;nan;97633.38;6212521;28;20844;-62
2023/01/21 12:03:44;;;;;;;4.37;2.97;;;;;;;-1.24;nan;97634.00;6212270;28;20294;-62
2023/01/21 12:06:47;;;;;;;4.20;2.80;;;;;;;-1.22;nan;97628.78;6202281;28;20236;-62
2023/01/21 12:10:14;;;;;;;3.70;2.63;;;;;;;-1.19;nan;97626.06;6187455;28;20242;-62
2023/01/21 12:13:38;;;;;;;3.20;2.90;;;;;;;-1.26;nan;97637.53;6172878;28;20275;-62
2023/01/21 12:17:06;;;;;;;4.73;3.00;;;;;;;-1.33;nan;97631.75;6172466;28;20235;-62
2023/01/21 12:20:30;;;;;;;4.43;3.17;;;;;;;-1.32;nan;97641.19;6184715;28;20259;-62
2023/01/21 12:24:15;;;;;;;4.43;2.97;;;;;;;-1.25;nan;97639.25;6185411;28;20228;-62
2023/01/21 12:27:39;;;;;;;3.60;3.00;;;;;;;-1.15;nan;97640.63;6184444;28;20229;-62
2023/01/21 12:31:05;;;;;;;4.33;3.30;;;;;;;-1.10;nan;97635.28;6184569;28;20232;-62
2023/01/21 12:34:32;;;;;;;3.23;2.83;;;;;;;-1.15;nan;97644.06;6185282;28;21111;-62
2023/01/21 12:37:45;;;;;;;4.10;3.03;;;;;;;-1.18;nan;97641.56;6183720;28;20335;-62
2023/01/21 12:40:59;;;;;;;4.83;3.60;;;;;;;-1.23;nan;97638.28;6184391;28;20924;-62
2023/01/21 12:44:28;;;;;;;5.33;3.40;;;;;;;-1.18;nan;97638.13;6183981;28;20371;-61
2023/01/21 12:47:58;;;;;;;4.43;3.47;;;;;;;-1.20;nan;97637.34;6182626;28;20240;-62
2023/01/21 12:51:06;;;;;;;5.63;3.77;;;;;;;-1.22;nan;97641.72;6184918;28;20676;-62
2023/01/21 12:54:36;;;;;;;4.43;3.40;;;;;;;-1.33;nan;97643.84;6184291;28;20788;-62
2023/01/21 12:57:46;;;;;;;4.73;3.53;;;;;;;-1.35;nan;97638.69;6182009;28;21172;-62
2023/01/21 13:00:52;;;;;;;4.57;3.30;;;;;;;-1.33;nan;97641.25;6184308;28;20911;-62
2023/01/21 13:04:03;;;;;;;5.50;3.53;;;;;;;-1.26;nan;97640.13;6166208;28;20236;-62
2023/01/21 13:07:27;;;;;;;5.90;3.43;;;;;;;-1.26;nan;97642.72;6183244;28;20516;-62
2023/01/21 13:10:34;;;;;;;5.03;3.80;;;;;;;-1.30;nan;97642.00;6183933;28;20269;-62
2023/01/21 13:13:49;;;;;;;6.07;3.70;;;;;;;-1.31;nan;97644.63;6183872;28;20606;-62
2023/01/21 13:17:00;;;;;;;6.07;3.97;;;;;;;-1.31;nan;97648.06;6182862;28;20668;-62
2023/01/21 13:20:14;;;;;;;3.93;3.03;;;;;;;-1.27;nan;97659.16;6184511;28;20731;-62
2023/01/21 13:23:48;;;;;;;6.60;3.33;;;;;;;-1.27;nan;97656.56;6183840;28;20254;-62
2023/01/21 13:27:35;;;;;;;6.97;3.60;;;;;;;-1.26;nan;97660.84;6180870;28;21504;-62
2023/01/21 13:30:47;;;;;;;5.27;3.50;;;;;;;-1.27;nan;97674.69;6157131;28;20232;-62
2023/01/21 13:34:03;;;;;;;5.07;3.67;;;;;;;-1.31;nan;97673.97;6183848;28;20314;-62
2023/01/21 13:37:22;;;;;;;5.20;3.80;;;;;;;-1.39;nan;97673.34;6185438;28;20603;-62
2023/01/21 13:40:37;;;;;;;5.13;3.93;;;;;;;-1.40;nan;97682.03;6184649;28;20268;-62
2023/01/21 13:43:58;;;;;;;4.20;2.97;;;;;;;-1.42;nan;97676.06;6182919;28;20939;-62
2023/01/21 13:47:09;;;;;;;5.63;3.87;;;;;;;-1.44;nan;97683.00;6181865;28;20762;-62
2023/01/21 13:50:34;;;;;;;5.20;3.63;;;;;;;-1.46;nan;97689.13;6182650;28;20233;-62
2023/01/21 13:53:59;;;;;;;5.50;3.70;;;;;;;-1.46;nan;97699.47;6165036;28;20397;-62
2023/01/21 13:57:23;;;;;;;6.83;4.70;;;;;;;-1.47;nan;97698.63;6182041;28;20280;-62
2023/01/21 14:00:28;;;;;;;5.13;3.93;;;;;;;-1.46;nan;97695.16;6182953;28;21116;-62
2023/01/21 14:03:46;;;;;;;6.30;4.30;;;;;;;-1.46;nan;97705.50;6181403;28;20687;-62
2023/01/21 14:06:55;;;;;;;7.13;4.27;;;;;;;-1.46;nan;97704.66;6181267;28;20336;-62
2023/01/21 14:10:05;;;;;;;5.03;3.70;;;;;;;-1.46;nan;97704.66;6182897;28;20719;-62
2023/01/21 14:13:30;;;;;;;4.40;3.33;;;;;;;-1.45;nan;97708.94;6176672;28;20823;-62
2023/01/21 14:16:55;;;;;;;5.43;4.07;;;;;;;-1.43;nan;97714.91;6175481;28;21631;-62
2023/01/21 14:20:22;;;;;;;5.33;4.03;;;;;;;-1.41;nan;97715.72;6174402;28;20239;-60
2023/01/21 14:23:27;;;;;;;5.20;3.50;;;;;;;-1.39;nan;97711.31;6175591;28;21076;-62
2023/01/21 14:26:35;;;;;;;5.70;3.87;;;;;;;-1.41;nan;97707.97;6173881;28;20243;-62
2023/01/21 14:29:45;;;;;;;6.27;3.87;;;;;;;-1.42;nan;97720.03;6175466;28;20251;-62
2023/01/21 14:33:12;;;;;;;5.37;3.70;;;;;;;-1.42;nan;97724.38;6174903;28;20720;-62
2023/01/21 14:36:22;;;;;;;4.90;3.43;;;;;;;-1.44;nan;97736.50;6174313;28;20294;-62
2023/01/21 14:40:12;;;;;;;5.63;3.43;;;;;;;-1.46;nan;97735.72;6175715;28;20259;-62
2023/01/21 14:43:41;;;;;;;5.17;3.60;;;;;;;-1.50;nan;97738.38;6170412;28;20577;-62
2023/01/21 14:47:09;;;;;;;5.67;4.23;;;;;;;-1.49;nan;97741.81;6177024;28;20235;-62
2023/01/21 14:50:43;;;;;;;4.77;3.60;;;;;;;-1.50;nan;97740.97;6242169;28;20236;-62
2023/01/21 14:53:48;;;;;;;5.27;3.10;;;;;;;-1.53;nan;97743.69;6237048;28;20235;-61
2023/01/21 14:57:00;;;;;;;5.03;3.53;;;;;;;-1.53;nan;97742.81;6238277;28;20236;-62
2023/01/21 15:00:32;;;;;;;3.80;3.10;;;;;;;-1.52;nan;97752.28;6222187;28;20552;-62
2023/01/21 15:03:50;;;;;;;6.03;3.90;;;;;;;-1.55;nan;97747.19;6234136;28;20267;-62
2023/01/21 15:06:57;;;;;;;4.17;3.60;;;;;;;-1.55;nan;97745.47;6235794;28;20240;-62
2023/01/21 15:10:08;;;;;;;4.73;3.63;;;;;;;-1.59;nan;97749.03;6234231;28;20242;-62
2023/01/21 15:13:30;;;;;;;4.33;3.40;;;;;;;-1.57;nan;97741.22;6231927;28;20243;-62
2023/01/21 15:16:36;;;;;;;5.63;4.10;;;;;;;-1.57;nan;97751.56;6231395;28;20235;-62